createdAt,value
2018-07-09T00:00:34.431Z,17.83
2018-07-09T00:01:34.992Z,17.80
2018-07-09T00:02:35.557Z,17.85
2018-07-09T00:03:36.117Z,17.79
2018-07-09T00:04:36.685Z,17.79
2018-07-09T00:05:37.264Z,17.72
2018-07-09T00:06:37.828Z,17.77
2018-07-09T00:07:38.390Z,17.72
2018-07-09T00:08:38.952Z,17.67
2018-07-09T00:09:39.498Z,17.55
2018-07-09T00:10:40.055Z,17.55
2018-07-09T00:11:40.608Z,17.49
2018-07-09T00:12:41.161Z,17.54
2018-07-09T00:13:41.714Z,17.48
2018-07-09T00:14:42.275Z,17.39
2018-07-09T00:15:42.825Z,17.39
2018-07-09T00:16:43.378Z,17.46
2018-07-09T00:17:43.949Z,17.36
2018-07-09T00:18:44.495Z,17.37
2018-07-09T00:19:45.048Z,17.39
2018-07-09T00:20:45.600Z,17.42
2018-07-09T00:21:46.149Z,17.41
2018-07-09T00:22:46.692Z,17.45
2018-07-09T00:23:47.249Z,17.44
2018-07-09T00:24:47.800Z,17.39
2018-07-09T00:25:48.355Z,17.34
2018-07-09T00:26:48.910Z,17.37
2018-07-09T00:27:49.492Z,17.31
2018-07-09T00:28:50.025Z,17.31
2018-07-09T00:29:50.588Z,17.21
2018-07-09T00:30:51.138Z,17.33
2018-07-09T00:31:51.691Z,17.23
2018-07-09T00:32:52.247Z,17.23
2018-07-09T00:33:52.802Z,17.11
2018-07-09T00:34:53.356Z,17.08
2018-07-09T00:35:53.908Z,16.97
2018-07-09T00:36:54.461Z,16.98
2018-07-09T00:37:55.015Z,16.93
2018-07-09T00:38:55.567Z,16.96
2018-07-09T00:39:56.114Z,17.00
2018-07-09T00:40:56.669Z,16.96
2018-07-09T00:41:57.227Z,16.97
2018-07-09T00:42:57.774Z,16.86
2018-07-09T00:43:58.325Z,16.89
2018-07-09T00:44:58.878Z,16.81
2018-07-09T00:45:59.432Z,16.96
2018-07-09T00:46:59.978Z,16.83
2018-07-09T00:48:00.535Z,16.83
2018-07-09T00:49:01.093Z,16.82
2018-07-09T00:50:01.638Z,16.87
2018-07-09T00:51:02.239Z,16.83
2018-07-09T00:52:02.737Z,16.93
2018-07-09T00:53:03.292Z,16.90
2018-07-09T00:54:03.844Z,16.87
2018-07-09T00:55:04.405Z,16.87
2018-07-09T00:56:04.954Z,16.90
2018-07-09T00:57:05.506Z,16.87
2018-07-09T00:58:06.062Z,16.89
2018-07-09T00:59:06.619Z,16.91
2018-07-09T01:00:07.171Z,16.93
2018-07-09T01:01:07.727Z,16.82
2018-07-09T01:02:08.282Z,16.90
2018-07-09T01:03:08.833Z,16.83
2018-07-09T01:04:09.390Z,16.78
2018-07-09T01:05:09.946Z,16.86
2018-07-09T01:06:10.501Z,16.73
2018-07-09T01:07:11.051Z,16.69
2018-07-09T01:08:11.604Z,16.73
2018-07-09T01:09:12.158Z,16.69
2018-07-09T01:10:12.714Z,16.78
2018-07-09T01:11:13.309Z,16.68
2018-07-09T01:12:13.814Z,16.57
2018-07-09T01:13:14.372Z,16.63
2018-07-09T01:14:14.921Z,16.53
2018-07-09T01:15:15.477Z,16.51
2018-07-09T01:16:16.030Z,16.56
2018-07-09T01:17:16.583Z,16.54
2018-07-09T01:18:17.155Z,16.53
2018-07-09T01:19:17.691Z,16.53
2018-07-09T01:20:18.272Z,16.41
2018-07-09T01:21:18.822Z,16.42
2018-07-09T01:22:19.354Z,16.45
2018-07-09T01:23:19.904Z,16.42
2018-07-09T01:24:20.458Z,16.41
2018-07-09T01:25:21.011Z,16.45
2018-07-09T01:26:21.564Z,16.41
2018-07-09T01:27:22.120Z,16.43
2018-07-09T01:28:22.672Z,16.43
2018-07-09T01:29:23.228Z,16.39
2018-07-09T01:30:23.785Z,16.39
2018-07-09T01:31:24.335Z,16.46
2018-07-09T01:32:24.889Z,16.51
2018-07-09T01:33:25.442Z,16.58
2018-07-09T01:34:25.998Z,16.46
2018-07-09T01:35:26.552Z,16.51
2018-07-09T01:36:27.108Z,16.53
2018-07-09T01:37:27.663Z,16.46
2018-07-09T01:38:28.226Z,16.45
2018-07-09T01:39:28.767Z,16.42
2018-07-09T01:40:29.321Z,16.42
2018-07-09T01:41:29.876Z,16.42
2018-07-09T01:42:30.430Z,16.39
2018-07-09T01:43:30.981Z,16.50
2018-07-09T01:44:31.535Z,16.41
2018-07-09T01:45:32.082Z,16.41
2018-07-09T01:46:32.635Z,16.42
2018-07-09T01:47:33.191Z,16.36
2018-07-09T01:48:33.744Z,16.27
2018-07-09T01:49:34.321Z,16.23
2018-07-09T01:50:34.852Z,16.29
2018-07-09T01:51:35.403Z,16.23
2018-07-09T01:52:35.953Z,16.16
2018-07-09T01:53:36.532Z,16.20
2018-07-09T01:54:37.065Z,16.15
2018-07-09T01:55:37.614Z,16.25
2018-07-09T01:56:38.168Z,16.15
2018-07-09T01:57:38.723Z,16.15
2018-07-09T01:58:39.277Z,16.02
2018-07-09T01:59:39.831Z,15.98
2018-07-09T02:00:40.379Z,15.98
2018-07-09T02:01:40.925Z,15.95
2018-07-09T02:02:41.478Z,15.91
2018-07-09T02:03:42.031Z,15.95
2018-07-09T02:04:42.578Z,15.91
2018-07-09T02:05:43.125Z,15.86
2018-07-09T02:06:43.680Z,15.97
2018-07-09T02:07:44.236Z,15.94
2018-07-09T02:08:44.799Z,15.98
2018-07-09T02:09:45.342Z,15.97
2018-07-09T02:10:45.898Z,15.94
2018-07-09T02:11:46.447Z,15.97
2018-07-09T02:12:46.998Z,15.97
2018-07-09T02:13:47.547Z,15.91
2018-07-09T02:14:48.103Z,15.94
2018-07-09T02:15:48.655Z,15.91
2018-07-09T02:16:49.209Z,15.92
2018-07-09T02:17:49.755Z,15.94
2018-07-09T02:18:50.305Z,15.82
2018-07-09T02:19:50.850Z,15.82
2018-07-09T02:20:51.397Z,15.84
2018-07-09T02:21:51.955Z,15.86
2018-07-09T02:22:52.508Z,15.94
2018-07-09T02:23:53.060Z,15.91
2018-07-09T02:24:53.615Z,15.83
2018-07-09T02:25:54.166Z,15.86
2018-07-09T02:26:54.722Z,15.89
2018-07-09T02:27:55.276Z,15.82
2018-07-09T02:28:55.830Z,15.82
2018-07-09T02:29:56.385Z,15.82
2018-07-09T02:30:56.937Z,15.80
2018-07-09T02:31:57.481Z,15.89
2018-07-09T02:32:58.030Z,15.79
2018-07-09T02:33:58.583Z,15.77
2018-07-09T02:34:59.133Z,15.76
2018-07-09T02:35:59.687Z,15.79
2018-07-09T02:37:00.239Z,15.68
2018-07-09T02:38:00.786Z,15.77
2018-07-09T02:39:01.344Z,15.65
2018-07-09T02:40:01.900Z,15.65
2018-07-09T02:41:02.449Z,15.76
2018-07-09T02:42:03.002Z,15.62
2018-07-09T02:43:03.549Z,15.64
2018-07-09T02:44:04.099Z,15.75
2018-07-09T02:45:04.646Z,15.77
2018-07-09T02:46:05.201Z,15.69
2018-07-09T02:47:05.759Z,15.69
2018-07-09T02:48:06.300Z,15.64
2018-07-09T02:49:06.859Z,15.65
2018-07-09T02:50:07.405Z,15.65
2018-07-09T02:51:07.961Z,15.61
2018-07-09T02:52:08.515Z,15.58
2018-07-09T02:53:09.067Z,15.49
2018-07-09T02:54:09.622Z,15.51
2018-07-09T02:55:10.172Z,15.54
2018-07-09T02:56:10.735Z,15.50
2018-07-09T02:57:11.282Z,15.50
2018-07-09T02:58:11.833Z,15.47
2018-07-09T02:59:12.386Z,15.47
2018-07-09T03:00:12.954Z,15.47
2018-07-09T03:01:13.648Z,15.50
2018-07-09T03:02:14.046Z,15.37
2018-07-09T03:03:14.597Z,15.44
2018-07-09T03:04:15.156Z,15.32
2018-07-09T03:05:15.707Z,15.37
2018-07-09T03:06:16.264Z,15.36
2018-07-09T03:07:16.815Z,15.34
2018-07-09T03:08:17.372Z,15.29
2018-07-09T03:09:17.928Z,15.26
2018-07-09T03:10:18.482Z,15.32
2018-07-09T03:11:19.035Z,15.26
2018-07-09T03:12:19.590Z,15.29
2018-07-09T03:13:20.143Z,15.26
2018-07-09T03:14:20.696Z,15.19
2018-07-09T03:15:21.258Z,15.19
2018-07-09T03:16:21.806Z,15.18
2018-07-09T03:17:22.360Z,15.29
2018-07-09T03:18:22.919Z,15.26
2018-07-09T03:19:23.472Z,15.28
2018-07-09T03:20:24.032Z,15.29
2018-07-09T03:21:24.582Z,15.22
2018-07-09T03:22:25.140Z,15.24
2018-07-09T03:23:25.695Z,15.25
2018-07-09T03:24:26.249Z,15.26
2018-07-09T03:25:26.799Z,15.18
2018-07-09T03:26:27.345Z,15.26
2018-07-09T03:27:27.897Z,15.19
2018-07-09T03:28:28.454Z,15.18
2018-07-09T03:29:29.016Z,15.13
2018-07-09T03:30:29.568Z,15.13
2018-07-09T03:31:30.126Z,15.14
2018-07-09T03:32:30.682Z,15.10
2018-07-09T03:33:31.241Z,15.13
2018-07-09T03:34:31.800Z,15.09
2018-07-09T03:35:32.358Z,15.07
2018-07-09T03:36:32.918Z,14.99
2018-07-09T03:37:33.470Z,15.01
2018-07-09T03:38:34.030Z,15.04
2018-07-09T03:39:34.583Z,14.96
2018-07-09T03:40:35.132Z,15.00
2018-07-09T03:41:35.693Z,14.96
2018-07-09T03:42:36.239Z,15.01
2018-07-09T03:43:36.797Z,14.96
2018-07-09T03:44:37.357Z,15.04
2018-07-09T03:45:37.913Z,15.00
2018-07-09T03:46:38.471Z,14.99
2018-07-09T03:47:39.027Z,14.99
2018-07-09T03:48:39.580Z,15.04
2018-07-09T03:49:40.139Z,15.03
2018-07-09T03:50:40.686Z,15.00
2018-07-09T03:51:41.247Z,15.04
2018-07-09T03:52:41.803Z,15.04
2018-07-09T03:53:42.356Z,14.95
2018-07-09T03:54:42.910Z,14.92
2018-07-09T03:55:43.471Z,15.04
2018-07-09T03:56:44.025Z,15.09
2018-07-09T03:57:44.581Z,14.88
2018-07-09T03:58:45.131Z,15.00
2018-07-09T03:59:45.691Z,15.09
2018-07-09T04:00:46.249Z,15.07
2018-07-09T04:01:46.802Z,15.10
2018-07-09T04:02:47.361Z,15.17
2018-07-09T04:03:47.918Z,15.21
2018-07-09T04:04:48.467Z,15.24
2018-07-09T04:05:49.022Z,15.17
2018-07-09T04:06:49.577Z,15.18
2018-07-09T04:07:50.134Z,15.31
2018-07-09T04:08:50.693Z,15.19
2018-07-09T04:09:51.253Z,15.19
2018-07-09T04:10:51.805Z,15.24
2018-07-09T04:11:52.355Z,15.18
2018-07-09T04:12:52.915Z,15.13
2018-07-09T04:13:53.478Z,15.17
2018-07-09T04:14:54.042Z,15.17
2018-07-09T04:15:54.599Z,15.22
2018-07-09T04:16:55.157Z,15.17
2018-07-09T04:17:55.724Z,15.26
2018-07-09T04:18:56.274Z,15.22
2018-07-09T04:19:56.834Z,15.22
2018-07-09T04:20:57.463Z,15.21
2018-07-09T04:21:57.946Z,15.21
2018-07-09T04:22:58.512Z,15.21
2018-07-09T04:23:59.054Z,15.21
2018-07-09T04:24:59.618Z,15.19
2018-07-09T04:26:00.174Z,15.25
2018-07-09T04:27:00.732Z,15.29
2018-07-09T04:28:01.286Z,15.29
2018-07-09T04:29:01.841Z,15.34
2018-07-09T04:30:02.404Z,15.37
2018-07-09T04:31:02.963Z,15.37
2018-07-09T04:32:03.523Z,15.32
2018-07-09T04:33:04.086Z,15.36
2018-07-09T04:34:04.642Z,15.32
2018-07-09T04:35:05.192Z,15.31
2018-07-09T04:36:05.750Z,15.31
2018-07-09T04:37:06.309Z,15.32
2018-07-09T04:38:06.863Z,15.29
2018-07-09T04:39:07.429Z,15.29
2018-07-09T04:40:07.984Z,15.32
2018-07-09T04:41:08.554Z,15.32
2018-07-09T04:42:09.103Z,15.32
2018-07-09T04:43:09.684Z,15.31
2018-07-09T04:44:10.212Z,15.28
2018-07-09T04:45:10.783Z,15.36
2018-07-09T04:46:11.336Z,15.47
2018-07-09T04:47:11.898Z,15.36
2018-07-09T04:48:12.456Z,15.46
2018-07-09T04:49:13.021Z,15.47
2018-07-09T04:50:13.578Z,15.49
2018-07-09T04:51:14.140Z,15.49
2018-07-09T04:52:14.701Z,15.59
2018-07-09T04:53:15.257Z,15.64
2018-07-09T04:54:15.818Z,15.75
2018-07-09T04:55:16.373Z,15.84
2018-07-09T04:56:16.930Z,16.01
2018-07-09T04:57:17.482Z,16.39
2018-07-09T04:58:18.043Z,16.94
2018-07-09T04:59:18.601Z,17.48
2018-07-09T05:00:19.164Z,17.95
2018-07-09T05:01:19.728Z,18.38
2018-07-09T05:02:20.294Z,18.81
2018-07-09T05:03:20.858Z,18.98
2018-07-09T05:04:21.459Z,18.90
2018-07-09T05:05:21.988Z,18.55
2018-07-09T05:06:22.551Z,18.35
2018-07-09T05:07:23.118Z,18.34
2018-07-09T05:08:23.683Z,18.56
2018-07-09T05:09:24.250Z,19.02
2018-07-09T05:10:24.817Z,19.49
2018-07-09T05:11:25.384Z,19.81
2018-07-09T05:12:25.949Z,20.09
2018-07-09T05:13:26.519Z,20.35
2018-07-09T05:14:27.092Z,20.48
2018-07-09T05:15:27.661Z,20.52
2018-07-09T05:16:28.233Z,20.60
2018-07-09T05:17:28.795Z,20.50
2018-07-09T05:18:29.357Z,20.54
2018-07-09T05:19:29.930Z,20.67
2018-07-09T05:20:30.498Z,20.81
2018-07-09T05:21:31.067Z,20.91
2018-07-09T05:22:31.635Z,20.81
2018-07-09T05:23:32.209Z,20.59
2018-07-09T05:24:32.777Z,20.35
2018-07-09T05:25:33.345Z,20.28
2018-07-09T05:26:33.914Z,20.06
2018-07-09T05:27:34.484Z,19.85
2018-07-09T05:28:35.046Z,20.06
2018-07-09T05:29:35.621Z,20.29
2018-07-09T05:30:36.189Z,20.67
2018-07-09T05:31:36.760Z,20.96
2018-07-09T05:32:37.330Z,21.22
2018-07-09T05:33:37.897Z,21.51
2018-07-09T05:34:38.466Z,21.75
2018-07-09T05:35:39.040Z,21.95
2018-07-09T05:36:39.609Z,22.18
2018-07-09T05:37:40.188Z,22.36
2018-07-09T05:38:40.752Z,22.54
2018-07-09T05:39:41.327Z,22.24
2018-07-09T05:40:41.899Z,22.02
2018-07-09T05:41:42.670Z,22.02
2018-07-09T05:42:43.247Z,22.20
2018-07-09T05:43:43.814Z,22.63
2018-07-09T05:44:44.385Z,22.88
2018-07-09T05:45:44.961Z,23.24
2018-07-09T05:46:45.533Z,23.68
2018-07-09T05:47:46.119Z,23.96
2018-07-09T05:48:46.693Z,24.17
2018-07-09T05:49:47.264Z,24.33
2018-07-09T05:50:47.843Z,24.38
2018-07-09T05:51:48.426Z,24.27
2018-07-09T05:52:48.990Z,24.63
2018-07-09T05:53:49.564Z,25.07
2018-07-09T05:54:50.132Z,25.10
2018-07-09T05:55:50.700Z,25.17
2018-07-09T05:56:51.276Z,25.47
2018-07-09T05:57:51.867Z,25.54
2018-07-09T05:58:52.462Z,25.63
2018-07-09T05:59:53.002Z,25.94
2018-07-09T06:00:53.574Z,26.18
2018-07-09T06:01:54.158Z,26.37
2018-07-09T06:02:54.726Z,26.63
2018-07-09T06:03:55.309Z,26.61
2018-07-09T06:04:55.888Z,26.91
2018-07-09T06:05:56.463Z,27.02
2018-07-09T06:06:57.042Z,27.15
2018-07-09T06:07:57.618Z,27.20
2018-07-09T06:08:58.193Z,27.23
2018-07-09T06:09:58.790Z,27.39
2018-07-09T06:10:59.373Z,27.68
2018-07-09T06:11:59.956Z,27.61
2018-07-09T06:13:00.528Z,27.45
2018-07-09T06:14:01.104Z,27.36
2018-07-09T06:15:01.738Z,27.20
2018-07-09T06:16:02.298Z,26.98
2018-07-09T06:17:02.887Z,27.08
2018-07-09T06:18:03.465Z,27.13
2018-07-09T06:19:04.057Z,27.13
2018-07-09T06:20:04.638Z,27.21
2018-07-09T06:21:05.215Z,26.91
2018-07-09T06:22:05.793Z,26.31
2018-07-09T06:23:06.368Z,25.91
2018-07-09T06:24:06.954Z,25.83
2018-07-09T06:25:07.518Z,25.93
2018-07-09T06:26:08.089Z,26.26
2018-07-09T06:27:08.665Z,26.68
2018-07-09T06:28:09.240Z,26.63
2018-07-09T06:29:09.816Z,26.61
2018-07-09T06:30:10.391Z,26.88
2018-07-09T06:31:10.964Z,26.74
2018-07-09T06:32:11.538Z,26.76
2018-07-09T06:33:12.123Z,26.84
2018-07-09T06:34:12.702Z,26.98
2018-07-09T06:35:13.278Z,27.05
2018-07-09T06:36:13.847Z,27.35
2018-07-09T06:37:14.424Z,27.30
2018-07-09T06:38:15.008Z,27.45
2018-07-09T06:39:15.584Z,27.67
2018-07-09T06:40:16.160Z,27.85
2018-07-09T06:41:16.732Z,27.73
2018-07-09T06:42:17.306Z,27.76
2018-07-09T06:43:17.888Z,27.85
2018-07-09T06:44:18.468Z,28.13
2018-07-09T06:45:19.051Z,28.30
2018-07-09T06:46:19.625Z,28.60
2018-07-09T06:47:20.201Z,28.81
2018-07-09T06:48:20.811Z,28.41
2018-07-09T06:49:21.358Z,28.22
2018-07-09T06:50:21.936Z,28.32
2018-07-09T06:51:22.513Z,28.51
2018-07-09T06:52:23.098Z,28.47
2018-07-09T06:53:23.675Z,28.48
2018-07-09T06:54:24.251Z,28.75
2018-07-09T06:55:24.823Z,28.62
2018-07-09T06:56:25.400Z,28.29
2018-07-09T06:57:25.977Z,28.40
2018-07-09T06:58:26.561Z,28.59
2018-07-09T06:59:27.138Z,28.78
2018-07-09T07:00:27.717Z,29.13
2018-07-09T07:01:28.287Z,29.08
2018-07-09T07:02:28.860Z,29.37
2018-07-09T07:03:29.438Z,29.66
2018-07-09T07:04:30.019Z,29.64
2018-07-09T07:05:30.596Z,29.54
2018-07-09T07:06:31.175Z,29.60
2018-07-09T07:07:31.764Z,29.75
2018-07-09T07:08:32.336Z,29.89
2018-07-09T07:09:32.915Z,30.03
2018-07-09T07:10:33.496Z,30.05
2018-07-09T07:11:34.073Z,30.30
2018-07-09T07:12:34.647Z,30.26
2018-07-09T07:13:35.225Z,30.22
2018-07-09T07:14:35.804Z,30.06
2018-07-09T07:15:36.381Z,29.89
2018-07-09T07:16:36.969Z,30.05
2018-07-09T07:17:37.547Z,29.75
2018-07-09T07:18:38.125Z,29.59
2018-07-09T07:19:38.705Z,29.64
2018-07-09T07:20:39.312Z,29.25
2018-07-09T07:21:39.866Z,29.13
2018-07-09T07:22:40.465Z,29.19
2018-07-09T07:23:41.248Z,29.22
2018-07-09T07:24:41.828Z,29.35
2018-07-09T07:25:42.401Z,29.74
2018-07-09T07:26:42.986Z,30.00
2018-07-09T07:27:43.685Z,30.09
2018-07-09T07:28:44.378Z,29.82
2018-07-09T07:29:44.954Z,29.87
2018-07-09T07:30:45.533Z,29.85
2018-07-09T07:31:46.118Z,29.85
2018-07-09T07:32:46.794Z,29.66
2018-07-09T07:33:47.266Z,29.35
2018-07-09T07:34:47.840Z,29.41
2018-07-09T07:35:48.431Z,29.47
2018-07-09T07:36:49.021Z,29.71
2018-07-09T07:37:49.578Z,29.62
2018-07-09T07:38:50.167Z,29.53
2018-07-09T07:39:50.740Z,29.13
2018-07-09T07:40:51.317Z,28.70
2018-07-09T07:41:51.904Z,28.25
2018-07-09T07:42:52.493Z,28.30
2018-07-09T07:43:53.060Z,28.40
2018-07-09T07:44:53.741Z,28.62
2018-07-09T07:45:54.209Z,28.79
2018-07-09T07:46:54.782Z,29.03
2018-07-09T07:47:55.348Z,29.37
2018-07-09T07:48:55.980Z,29.25
2018-07-09T07:49:56.556Z,28.94
2018-07-09T07:50:57.136Z,29.16
2018-07-09T07:51:57.725Z,29.26
2018-07-09T07:52:58.292Z,29.38
2018-07-09T07:53:58.873Z,29.53
2018-07-09T07:54:59.451Z,29.57
2018-07-09T07:56:00.030Z,29.23
2018-07-09T07:57:00.606Z,28.91
2018-07-09T07:58:01.184Z,29.10
2018-07-09T07:59:01.761Z,29.42
2018-07-09T08:00:02.332Z,29.54
2018-07-09T08:01:02.913Z,29.63
2018-07-09T08:02:03.492Z,29.78
2018-07-09T08:03:04.067Z,30.00
2018-07-09T08:04:04.639Z,30.11
2018-07-09T08:05:05.215Z,30.28
2018-07-09T08:06:05.794Z,30.34
2018-07-09T08:07:06.416Z,30.69
2018-07-09T08:08:07.041Z,31.03
2018-07-09T08:09:07.609Z,31.30
2018-07-09T08:10:08.262Z,31.25
2018-07-09T08:11:11.222Z,31.15
2018-07-09T08:13:00.542Z,30.64
2018-07-09T08:13:27.979Z,30.38
2018-07-09T08:14:11.648Z,30.30
2018-07-09T08:15:12.232Z,30.28
2018-07-09T08:16:12.811Z,30.03
2018-07-09T08:17:13.402Z,30.24
2018-07-09T08:18:13.967Z,30.56
2018-07-09T08:19:14.549Z,30.37
2018-07-09T08:20:15.182Z,30.44
2018-07-09T08:21:15.759Z,30.56
2018-07-09T08:22:16.341Z,30.71
2018-07-09T08:23:16.915Z,30.88
2018-07-09T08:24:17.492Z,31.43
2018-07-09T08:25:18.133Z,31.74
2018-07-09T08:26:18.649Z,31.08
2018-07-09T08:27:19.271Z,30.97
2018-07-09T08:28:19.851Z,30.68
2018-07-09T08:29:20.430Z,30.51
2018-07-09T08:30:21.017Z,30.24
2018-07-09T08:31:21.709Z,30.24
2018-07-09T08:32:22.158Z,30.34
2018-07-09T08:33:22.736Z,30.46
2018-07-09T08:34:23.308Z,30.08
2018-07-09T08:35:23.886Z,30.06
2018-07-09T08:36:24.456Z,29.78
2018-07-09T08:37:25.026Z,30.00
2018-07-09T08:38:25.602Z,29.89
2018-07-09T08:39:26.181Z,29.85
2018-07-09T08:40:26.765Z,29.96
2018-07-09T08:41:27.326Z,29.96
2018-07-09T08:42:27.901Z,30.06
2018-07-09T08:43:28.554Z,30.01
2018-07-09T08:44:29.132Z,30.08
2018-07-09T08:45:29.709Z,29.85
2018-07-09T08:46:30.289Z,29.97
2018-07-09T08:47:30.921Z,29.78
2018-07-09T08:48:31.432Z,29.99
2018-07-09T08:49:32.013Z,30.18
2018-07-09T08:50:32.595Z,30.18
2018-07-09T08:51:33.174Z,29.99
2018-07-09T08:52:33.749Z,30.19
2018-07-09T08:53:34.322Z,30.15
2018-07-09T08:54:34.903Z,30.06
2018-07-09T08:55:35.483Z,29.97
2018-07-09T08:56:36.057Z,30.08
2018-07-09T08:57:36.656Z,30.19
2018-07-09T08:58:37.278Z,30.12
2018-07-09T08:59:37.853Z,29.91
2018-07-09T09:00:38.418Z,29.59
2018-07-09T09:01:39.004Z,29.56
2018-07-09T09:02:39.571Z,30.01
2018-07-09T09:03:40.161Z,30.24
2018-07-09T09:04:40.732Z,30.43
2018-07-09T09:05:41.336Z,30.19
2018-07-09T09:06:41.966Z,30.08
2018-07-09T09:07:42.542Z,30.34
2018-07-09T09:08:43.117Z,30.64
2018-07-09T09:09:43.691Z,30.71
2018-07-09T09:10:44.268Z,30.66
2018-07-09T09:11:44.896Z,30.18
2018-07-09T09:12:45.497Z,30.16
2018-07-09T09:13:46.074Z,30.18
2018-07-09T09:14:46.649Z,30.16
2018-07-09T09:15:47.226Z,30.26
2018-07-09T09:16:47.800Z,30.19
2018-07-09T09:17:48.376Z,30.09
2018-07-09T09:18:48.952Z,30.38
2018-07-09T09:19:49.522Z,30.51
2018-07-09T09:20:50.098Z,30.80
2018-07-09T09:21:50.682Z,31.34
2018-07-09T09:22:51.254Z,31.46
2018-07-09T09:23:51.880Z,31.25
2018-07-09T09:24:52.448Z,31.25
2018-07-09T09:25:53.027Z,31.06
2018-07-09T09:26:53.596Z,30.99
2018-07-09T09:27:54.171Z,31.20
2018-07-09T09:28:54.740Z,31.28
2018-07-09T09:29:55.318Z,31.37
2018-07-09T09:30:55.893Z,31.09
2018-07-09T09:31:56.480Z,30.99
2018-07-09T09:32:57.058Z,30.87
2018-07-09T09:33:57.628Z,31.28
2018-07-09T09:34:58.212Z,31.52
2018-07-09T09:35:58.794Z,31.47
2018-07-09T09:36:59.388Z,31.25
2018-07-09T09:37:59.961Z,30.99
2018-07-09T09:39:00.522Z,30.94
2018-07-09T09:40:01.100Z,31.24
2018-07-09T09:41:01.698Z,31.20
2018-07-09T09:42:02.248Z,31.54
2018-07-09T09:43:02.874Z,31.39
2018-07-09T09:44:03.399Z,31.40
2018-07-09T09:45:04.003Z,31.12
2018-07-09T09:46:04.587Z,31.10
2018-07-09T09:47:05.166Z,31.15
2018-07-09T09:48:05.777Z,31.23
2018-07-09T09:49:06.353Z,31.24
2018-07-09T09:50:06.926Z,31.28
2018-07-09T09:51:07.506Z,30.91
2018-07-09T09:52:08.098Z,30.73
2018-07-09T09:53:08.679Z,30.60
2018-07-09T09:54:09.261Z,30.65
2018-07-09T09:55:09.834Z,30.69
2018-07-09T09:56:10.404Z,30.66
2018-07-09T09:57:10.981Z,30.62
2018-07-09T09:58:11.556Z,30.66
2018-07-09T09:59:12.134Z,30.78
2018-07-09T10:00:12.709Z,30.68
2018-07-09T10:01:13.278Z,30.75
2018-07-09T10:02:13.887Z,30.84
2018-07-09T10:03:14.500Z,30.81
2018-07-09T10:04:15.075Z,30.84
2018-07-09T10:05:15.654Z,30.68
2018-07-09T10:06:16.237Z,30.56
2018-07-09T10:07:16.866Z,30.26
2018-07-09T10:08:17.513Z,30.47
2018-07-09T10:09:18.149Z,30.43
2018-07-09T10:10:18.726Z,30.28
2018-07-09T10:11:19.417Z,30.50
2018-07-09T10:12:19.920Z,30.66
2018-07-09T10:13:20.485Z,30.68
2018-07-09T10:14:21.070Z,30.40
2018-07-09T10:15:21.637Z,30.66
2018-07-09T10:16:22.214Z,30.90
2018-07-09T10:17:22.793Z,30.80
2018-07-09T10:18:23.376Z,30.97
2018-07-09T10:19:23.959Z,30.83
2018-07-09T10:20:24.531Z,31.09
2018-07-09T10:21:25.102Z,30.69
2018-07-09T10:22:25.680Z,30.86
2018-07-09T10:23:26.268Z,30.87
2018-07-09T10:24:26.824Z,30.90
2018-07-09T10:25:27.439Z,30.87
2018-07-09T10:26:28.135Z,31.10
2018-07-09T10:27:28.715Z,31.24
2018-07-09T10:28:29.304Z,30.90
2018-07-09T10:29:29.888Z,31.24
2018-07-09T10:30:30.542Z,31.25
2018-07-09T10:31:31.133Z,31.24
2018-07-09T10:32:31.796Z,31.34
2018-07-09T10:33:32.388Z,31.28
2018-07-09T10:34:32.966Z,31.47
2018-07-09T10:35:33.536Z,32.05
2018-07-09T10:36:34.138Z,32.06
2018-07-09T10:37:34.715Z,31.95
2018-07-09T10:38:35.293Z,31.90
2018-07-09T10:39:35.905Z,32.10
2018-07-09T10:40:36.445Z,32.58
2018-07-09T10:41:37.019Z,32.56
2018-07-09T10:42:37.606Z,32.37
2018-07-09T10:43:38.223Z,31.76
2018-07-09T10:44:38.805Z,31.58
2018-07-09T10:45:39.365Z,31.96
2018-07-09T10:46:39.948Z,32.19
2018-07-09T10:47:40.533Z,32.34
2018-07-09T10:48:41.202Z,32.34
2018-07-09T10:49:41.774Z,32.41
2018-07-09T10:50:42.400Z,32.52
2018-07-09T10:51:42.950Z,32.48
2018-07-09T10:52:43.888Z,32.62
2018-07-09T10:53:44.502Z,32.18
2018-07-09T10:54:45.155Z,32.02
2018-07-09T10:55:45.785Z,31.82
2018-07-09T10:56:46.355Z,31.76
2018-07-09T10:57:46.923Z,31.85
2018-07-09T10:58:47.534Z,31.47
2018-07-09T10:59:48.089Z,31.36
2018-07-09T11:00:48.693Z,31.30
2018-07-09T11:01:49.235Z,31.49
2018-07-09T11:02:49.836Z,31.36
2018-07-09T11:03:50.388Z,31.20
2018-07-09T11:04:50.963Z,30.97
2018-07-09T11:05:51.538Z,30.97
2018-07-09T11:06:52.119Z,30.68
2018-07-09T11:07:52.691Z,30.69
2018-07-09T11:08:53.265Z,30.99
2018-07-09T11:09:53.855Z,30.86
2018-07-09T11:10:54.516Z,31.10
2018-07-09T11:11:55.091Z,31.28
2018-07-09T11:12:55.666Z,31.36
2018-07-09T11:13:56.241Z,30.72
2018-07-09T11:14:56.822Z,30.86
2018-07-09T11:15:57.398Z,30.69
2018-07-09T11:16:57.971Z,30.84
2018-07-09T11:17:58.547Z,31.03
2018-07-09T11:18:59.126Z,31.37
2018-07-09T11:19:59.707Z,31.76
2018-07-09T11:21:00.294Z,31.84
2018-07-09T11:22:00.881Z,31.73
2018-07-09T11:23:01.469Z,31.68
2018-07-09T11:24:02.038Z,31.37
2018-07-09T11:25:02.609Z,31.21
2018-07-09T11:26:03.193Z,30.87
2018-07-09T11:27:03.786Z,31.09
2018-07-09T11:28:04.356Z,31.46
2018-07-09T11:29:04.929Z,31.84
2018-07-09T11:30:05.599Z,31.96
2018-07-09T11:31:06.163Z,32.15
2018-07-09T11:32:06.757Z,32.41
2018-07-09T11:33:07.327Z,32.89
2018-07-09T11:34:07.918Z,33.05
2018-07-09T11:35:08.490Z,32.74
2018-07-09T11:36:09.124Z,32.77
2018-07-09T11:37:09.654Z,32.67
2018-07-09T11:38:10.230Z,32.18
2018-07-09T11:39:10.798Z,32.44
2018-07-09T11:40:11.410Z,32.55
2018-07-09T11:41:11.968Z,32.51
2018-07-09T11:42:12.597Z,32.37
2018-07-09T11:43:13.130Z,32.58
2018-07-09T11:44:13.705Z,32.86
2018-07-09T11:45:14.298Z,33.27
2018-07-09T11:46:14.869Z,33.43
2018-07-09T11:47:15.461Z,33.55
2018-07-09T11:48:16.099Z,33.58
2018-07-09T11:49:16.680Z,33.33
2018-07-09T11:50:17.266Z,33.58
2018-07-09T11:51:17.839Z,32.74
2018-07-09T11:52:18.417Z,32.44
2018-07-09T11:53:19.008Z,31.93
2018-07-09T11:54:19.588Z,31.28
2018-07-09T11:55:20.152Z,31.08
2018-07-09T11:56:20.740Z,31.03
2018-07-09T11:57:21.321Z,30.84
2018-07-09T11:58:21.902Z,30.86
2018-07-09T11:59:22.510Z,31.10
2018-07-09T12:00:23.089Z,31.73
2018-07-09T12:01:23.668Z,32.30
2018-07-09T12:02:24.253Z,32.88
2018-07-09T12:03:24.829Z,33.37
2018-07-09T12:04:25.420Z,33.87
2018-07-09T12:05:26.007Z,33.92
2018-07-09T12:06:26.577Z,33.71
2018-07-09T12:07:27.148Z,33.41
2018-07-09T12:08:27.728Z,32.86
2018-07-09T12:09:28.314Z,32.78
2018-07-09T12:10:28.894Z,32.74
2018-07-09T12:11:29.527Z,32.66
2018-07-09T12:12:30.042Z,32.54
2018-07-09T12:13:30.622Z,32.78
2018-07-09T12:14:31.194Z,33.20
2018-07-09T12:15:31.770Z,33.43
2018-07-09T12:16:32.356Z,33.49
2018-07-09T12:17:32.927Z,33.36
2018-07-09T12:18:33.514Z,33.15
2018-07-09T12:19:34.073Z,33.20
2018-07-09T12:20:34.655Z,33.03
2018-07-09T12:21:35.297Z,32.91
2018-07-09T12:22:35.830Z,32.86
2018-07-09T12:23:36.396Z,32.71
2018-07-09T12:24:36.979Z,32.24
2018-07-09T12:25:37.551Z,32.33
2018-07-09T12:26:38.114Z,32.15
2018-07-09T12:27:38.701Z,31.99
2018-07-09T12:28:39.282Z,32.06
2018-07-09T12:29:39.860Z,32.40
2018-07-09T12:30:40.449Z,32.51
2018-07-09T12:31:41.016Z,32.52
2018-07-09T12:32:41.597Z,32.30
2018-07-09T12:33:42.168Z,32.07
2018-07-09T12:34:42.742Z,32.17
2018-07-09T12:35:43.316Z,32.24
2018-07-09T12:36:43.969Z,32.36
2018-07-09T12:37:44.550Z,32.12
2018-07-09T12:38:45.135Z,32.18
2018-07-09T12:39:45.718Z,31.88
2018-07-09T12:40:46.293Z,31.80
2018-07-09T12:41:46.892Z,31.61
2018-07-09T12:42:47.479Z,31.45
2018-07-09T12:43:48.098Z,31.31
2018-07-09T12:44:48.659Z,31.08
2018-07-09T12:45:49.228Z,31.10
2018-07-09T12:46:49.810Z,30.78
2018-07-09T12:47:50.389Z,30.66
2018-07-09T12:48:50.982Z,30.71
2018-07-09T12:49:51.586Z,30.95
2018-07-09T12:50:52.146Z,31.15
2018-07-09T12:51:52.734Z,31.27
2018-07-09T12:52:53.289Z,31.27
2018-07-09T12:53:53.863Z,31.61
2018-07-09T12:54:54.448Z,31.73
2018-07-09T12:55:55.020Z,31.85
2018-07-09T12:56:55.598Z,31.57
2018-07-09T12:57:56.173Z,31.47
2018-07-09T12:58:56.747Z,31.45
2018-07-09T12:59:57.321Z,31.49